Hlavní strana
METAR-TAF:

METAR-TAF

Letiště :

Koror, Babeldaob, Palau

zeměpisná šířka: 07-22N, zeměpisná délka: 134-32E, výška: 54 m

Aktuální stav počasí

Zpráva byla vytvořena před 41 minutami, v 23:50 UTC
Západojihozápadní vítr 8 kt
Teplota 28°C
Vlhkost vzduchu 84%
Tlak 1012 hPa
Viditelnost: 24.1 km
Oblačno až skoro zataženo ve výšce 1500 ft, Vertikální cumulus.
Oblačno až skoro zataženo ve výšce 12000 ft
Oblačno až skoro zataženo ve výšce 30000 ft

METAR: PTRO 152350Z 24008KT 15SM BKN015TCU BKN120 BKN300 28/25 A2989 RMK TCU ALQDS

Čas: 09:31 (00:31 UTC)

Předpověď počasí

Zpráva byla vytvořena před 56 minutami, v 23:35 UTC
Předpověď platná od 16 v 00 UTC do 16 v 24 UTC
Jihozápadní vítr 6 kt
Viditelnost: 10 km
Polojasno ve výšce 1600 ft
Oblačno až skoro zataženo ve výšce 12000 ft
přeháňky v blízkosti

TAF: PTRO 152335Z 1600/1624 23006KT P6SM VCSH SCT016 BKN120

Stav a předpovědi počasí z více než 4 000 letišť (zprávy METAR a TAF).

Červené a žluté tečky na mapě představují dostupné meteorologické stanice.

Když kurzor umístíte na tečku, zobrazí se název stanice.

Pak kliknutím zobrazíte stav a předpověď počasí.

Chcete-li změnit mapu, kliknutím na zelené tlačítko se znaménkem +mapu přiblížíte, kliknutím na zelené tlačítko se znaménkem – mapu oddálíte a kliknutím na zelené šipky přejdete na sousední mapy.


METAR-TAF: